createdAt,value
2023-03-16T00:01:12.881Z,1.33
2023-03-16T00:03:58.128Z,1.57
2023-03-16T00:06:42.957Z,1.76
2023-03-16T00:09:31.133Z,1.27
2023-03-16T00:12:19.448Z,1.78
2023-03-16T00:15:05.116Z,2.11
2023-03-16T00:17:51.591Z,1.55
2023-03-16T00:20:36.432Z,1.86
2023-03-16T00:23:27.169Z,1.72
2023-03-16T00:26:13.009Z,1.97
2023-03-16T00:28:57.896Z,1.69
2023-03-16T00:31:43.903Z,3.01
2023-03-16T00:34:30.354Z,2.58
2023-03-16T00:37:18.497Z,1.85
2023-03-16T00:40:04.496Z,1.72
2023-03-16T00:42:49.746Z,1.39
2023-03-16T00:45:35.054Z,1.60
2023-03-16T00:48:21.176Z,1.16
2023-03-16T00:51:09.194Z,1.27
2023-03-16T00:53:54.013Z,2.24
2023-03-16T00:56:38.839Z,2.34
2023-03-16T00:59:26.103Z,1.45
2023-03-16T01:02:12.341Z,1.87
2023-03-16T01:04:57.600Z,1.69
2023-03-16T01:07:42.932Z,1.85
2023-03-16T01:10:28.407Z,2.72
2023-03-16T01:13:13.713Z,1.63
2023-03-16T01:15:59.891Z,1.01
2023-03-16T01:18:44.911Z,1.73
2023-03-16T01:21:30.333Z,1.18
2023-03-16T01:24:15.231Z,1.01
2023-03-16T01:27:00.629Z,0.74
2023-03-16T01:29:45.798Z,0.87
2023-03-16T01:32:31.107Z,0.94
2023-03-16T01:35:15.932Z,0.67
2023-03-16T01:38:00.899Z,0.35
2023-03-16T01:40:46.148Z,0.30
2023-03-16T01:43:33.273Z,0.70
2023-03-16T01:46:22.877Z,0.40
2023-03-16T01:49:26.633Z,0.66
2023-03-16T01:52:21.164Z,0.43
2023-03-16T01:55:08.843Z,1.44
2023-03-16T01:57:56.952Z,1.72
2023-03-16T02:00:42.167Z,0.95
2023-03-16T02:03:28.042Z,0.88
2023-03-16T02:06:19.006Z,0.90
2023-03-16T02:09:05.652Z,1.07
2023-03-16T02:11:51.911Z,0.95
2023-03-16T02:14:36.844Z,1.38
2023-03-16T02:17:25.216Z,1.67
2023-03-16T02:20:26.333Z,2.14
2023-03-16T02:23:18.415Z,2.58
2023-03-16T02:26:27.977Z,2.23
2023-03-16T02:29:41.678Z,2.59
2023-03-16T02:32:28.944Z,2.55
2023-03-16T02:35:14.356Z,2.38
2023-03-16T02:37:59.976Z,2.06
2023-03-16T02:40:52.885Z,1.23
2023-03-16T02:43:42.565Z,2.10
2023-03-16T02:46:28.878Z,1.96
2023-03-16T02:49:21.804Z,1.56
2023-03-16T02:52:08.149Z,1.45
2023-03-16T02:54:53.095Z,0.81
2023-03-16T02:57:38.226Z,1.34
2023-03-16T03:00:23.155Z,1.36
2023-03-16T03:03:09.303Z,0.95
2023-03-16T03:05:54.323Z,0.11
2023-03-16T03:08:39.114Z,0.62
2023-03-16T03:11:25.219Z,0.53
2023-03-16T03:14:10.411Z,0.05
2023-03-16T03:16:56.310Z,0.34
2023-03-16T03:19:41.423Z,-0.06
2023-03-16T03:22:27.904Z,0.11
2023-03-16T03:25:15.029Z,0.28
2023-03-16T03:28:01.982Z,0.70
2023-03-16T03:30:47.034Z,1.79
2023-03-16T03:33:33.578Z,2.26
2023-03-16T03:36:18.497Z,2.33
2023-03-16T03:39:05.034Z,2.73
2023-03-16T03:41:54.400Z,2.79
2023-03-16T03:44:39.414Z,2.82
2023-03-16T03:47:24.563Z,2.93
2023-03-16T03:50:11.269Z,3.07
2023-03-16T03:52:56.191Z,2.94
2023-03-16T03:55:41.218Z,2.84
2023-03-16T03:58:26.665Z,2.92
2023-03-16T04:01:11.490Z,2.91
2023-03-16T04:03:56.589Z,2.40
2023-03-16T04:06:41.641Z,1.68
2023-03-16T04:09:27.029Z,1.26
2023-03-16T04:12:12.300Z,1.75
2023-03-16T04:14:57.689Z,1.32
2023-03-16T04:17:42.902Z,0.76
2023-03-16T04:20:29.717Z,0.61
2023-03-16T04:23:16.549Z,-0.14
2023-03-16T04:26:01.857Z,0.23
2023-03-16T04:28:47.782Z,0.27
2023-03-16T04:31:33.431Z,0.24
2023-03-16T04:34:18.227Z,0.73
2023-03-16T04:37:03.093Z,1.23
2023-03-16T04:39:48.274Z,0.72
2023-03-16T04:42:33.181Z,1.33
2023-03-16T04:45:18.593Z,2.43
2023-03-16T04:48:03.952Z,2.68
2023-03-16T04:50:49.268Z,2.66
2023-03-16T04:53:34.076Z,1.79
2023-03-16T04:56:19.966Z,1.65
2023-03-16T04:59:05.044Z,1.38
2023-03-16T05:01:50.291Z,1.16
2023-03-16T05:04:35.409Z,1.07
2023-03-16T05:07:21.228Z,1.29
2023-03-16T05:10:07.235Z,1.67
2023-03-16T05:12:52.428Z,2.26
2023-03-16T05:15:37.366Z,2.43
2023-03-16T05:18:23.006Z,1.28
2023-03-16T05:21:08.294Z,1.96
2023-03-16T05:23:54.501Z,1.81
2023-03-16T05:26:39.629Z,0.89
2023-03-16T05:29:26.006Z,1.60
2023-03-16T05:32:11.539Z,1.96
2023-03-16T05:34:56.765Z,1.07
2023-03-16T05:37:42.901Z,0.85
2023-03-16T05:40:28.854Z,0.81
2023-03-16T05:43:13.845Z,0.43
2023-03-16T05:45:58.765Z,0.37
2023-03-16T05:48:43.652Z,0.31
2023-03-16T05:51:28.683Z,-0.05
2023-03-16T05:54:13.848Z,-0.05
2023-03-16T05:56:59.112Z,-0.20
2023-03-16T05:59:44.290Z,-0.58
2023-03-16T06:02:29.616Z,-0.37
2023-03-16T06:05:15.736Z,-0.21
2023-03-16T06:08:01.563Z,-0.46
2023-03-16T06:10:48.110Z,-0.36
2023-03-16T06:13:35.331Z,-0.24
2023-03-16T06:16:21.094Z,-0.21
2023-03-16T06:19:06.347Z,0.28
2023-03-16T06:21:51.034Z,0.16
2023-03-16T06:24:35.933Z,0.68
2023-03-16T06:27:21.329Z,0.73
2023-03-16T06:30:08.625Z,1.20
2023-03-16T06:32:53.704Z,0.68
2023-03-16T06:35:38.804Z,1.34
2023-03-16T06:38:26.133Z,1.34
2023-03-16T06:41:11.614Z,1.73
2023-03-16T06:43:57.219Z,2.15
2023-03-16T06:46:42.547Z,1.84
2023-03-16T06:49:28.630Z,1.67
2023-03-16T06:52:14.707Z,1.63
2023-03-16T06:54:59.593Z,1.89
2023-03-16T06:57:44.793Z,1.88
2023-03-16T07:00:30.634Z,1.81
2023-03-16T07:03:16.225Z,1.85
2023-03-16T07:06:01.537Z,1.91
2023-03-16T07:08:46.368Z,1.99
2023-03-16T07:11:32.513Z,1.94
2023-03-16T07:14:19.552Z,1.88
2023-03-16T07:17:04.731Z,1.90
2023-03-16T07:19:49.656Z,1.93
2023-03-16T07:22:35.424Z,2.25
2023-03-16T07:25:20.461Z,2.39
2023-03-16T07:28:06.031Z,2.45
2023-03-16T07:31:03.076Z,2.50
2023-03-16T07:33:49.541Z,2.63
2023-03-16T07:36:34.282Z,2.70
2023-03-16T07:39:19.661Z,2.68
2023-03-16T07:42:04.761Z,2.71
2023-03-16T07:44:51.817Z,2.76
2023-03-16T07:47:37.157Z,2.87
2023-03-16T07:50:24.641Z,2.94
2023-03-16T07:53:10.138Z,3.08
2023-03-16T07:55:55.744Z,3.13
2023-03-16T07:58:41.765Z,3.26
2023-03-16T08:01:27.165Z,3.30
2023-03-16T08:04:12.853Z,3.40
2023-03-16T08:07:00.158Z,3.45
2023-03-16T08:09:45.170Z,3.40
2023-03-16T08:12:30.163Z,3.50
2023-03-16T08:15:15.603Z,3.69
2023-03-16T08:18:02.464Z,3.91
2023-03-16T08:20:47.514Z,4.04
2023-03-16T08:23:33.519Z,4.15
2023-03-16T08:26:23.087Z,4.23
2023-03-16T08:29:07.818Z,4.16
2023-03-16T08:31:56.128Z,4.17
2023-03-16T08:34:42.115Z,4.34
2023-03-16T08:37:27.483Z,4.57
2023-03-16T08:40:17.018Z,4.84
2023-03-16T08:43:02.431Z,5.10
2023-03-16T08:45:48.310Z,5.21
2023-03-16T08:48:33.718Z,5.36
2023-03-16T08:51:19.341Z,5.48
2023-03-16T08:54:05.056Z,5.67
2023-03-16T08:56:52.640Z,5.78
2023-03-16T08:59:38.532Z,5.91
2023-03-16T09:02:25.244Z,6.14
2023-03-16T09:05:12.374Z,6.23
2023-03-16T09:07:57.604Z,6.37
2023-03-16T09:10:42.457Z,6.48
2023-03-16T09:13:29.980Z,6.55
2023-03-16T09:16:15.981Z,6.53
2023-03-16T09:19:01.371Z,6.64
2023-03-16T09:21:47.440Z,6.67
2023-03-16T09:24:32.845Z,6.76
2023-03-16T09:27:18.635Z,6.82
2023-03-16T09:30:05.398Z,6.88
2023-03-16T09:32:50.744Z,6.96
2023-03-16T09:35:37.407Z,6.93
2023-03-16T09:38:22.456Z,7.11
2023-03-16T09:41:10.915Z,7.08
2023-03-16T09:44:29.559Z,7.16
2023-03-16T09:47:16.550Z,7.14
2023-03-16T09:50:07.323Z,6.98
2023-03-16T09:53:14.258Z,7.11
2023-03-16T09:56:27.233Z,7.30
2023-03-16T09:59:15.145Z,7.57
2023-03-16T10:02:42.011Z,7.42
2023-03-16T10:05:28.568Z,7.17
2023-03-16T10:08:16.665Z,7.53
2023-03-16T10:11:04.880Z,7.71
2023-03-16T10:14:17.461Z,7.86
2023-03-16T10:17:40.509Z,8.41
2023-03-16T10:20:28.449Z,8.18
2023-03-16T10:23:20.443Z,8.19
2023-03-16T10:26:13.412Z,8.00
2023-03-16T10:29:01.841Z,8.07
2023-03-16T10:31:47.312Z,8.07
2023-03-16T10:34:32.558Z,8.18
2023-03-16T10:37:17.401Z,8.41
2023-03-16T10:40:09.345Z,8.38
2023-03-16T10:42:54.974Z,8.50
2023-03-16T10:45:47.099Z,8.58
2023-03-16T10:48:34.708Z,8.60
2023-03-16T10:51:25.604Z,8.67
2023-03-16T10:54:19.715Z,8.67
2023-03-16T10:57:15.777Z,8.88
2023-03-16T11:00:21.539Z,8.67
2023-03-16T11:03:22.797Z,8.94
2023-03-16T11:06:21.138Z,8.94
2023-03-16T11:09:22.712Z,8.96
2023-03-16T11:12:35.244Z,8.95
2023-03-16T11:15:26.075Z,9.11
2023-03-16T11:18:25.306Z,9.67
2023-03-16T11:21:51.191Z,9.40
2023-03-16T11:24:52.473Z,9.34
2023-03-16T11:27:54.104Z,9.33
2023-03-16T11:31:01.273Z,9.19
2023-03-16T11:33:49.583Z,9.33
2023-03-16T11:36:44.074Z,9.31
2023-03-16T11:39:44.904Z,9.40
2023-03-16T11:42:42.891Z,9.55
2023-03-16T11:45:37.011Z,9.64
2023-03-16T11:48:48.685Z,10.07
2023-03-16T11:52:05.160Z,10.04
2023-03-16T11:55:03.419Z,10.17
2023-03-16T11:58:24.412Z,10.21
2023-03-16T12:01:25.759Z,10.13
2023-03-16T12:04:22.170Z,10.17
2023-03-16T12:07:25.775Z,10.17
2023-03-16T12:10:29.289Z,10.07
2023-03-16T12:13:35.781Z,9.90
2023-03-16T12:16:48.351Z,9.59
2023-03-16T12:19:42.166Z,9.60
2023-03-16T12:22:37.259Z,9.84
2023-03-16T12:25:27.788Z,9.99
2023-03-16T12:28:33.283Z,10.31
2023-03-16T12:31:43.019Z,10.49
2023-03-16T12:34:56.475Z,10.36
2023-03-16T12:37:48.197Z,10.40
2023-03-16T12:40:55.082Z,10.65
2023-03-16T12:43:52.010Z,10.59
2023-03-16T12:47:04.859Z,10.56
2023-03-16T12:49:51.948Z,10.20
2023-03-16T12:52:52.318Z,10.22
2023-03-16T12:55:38.192Z,10.39
2023-03-16T12:58:26.262Z,10.34
2023-03-16T13:01:13.303Z,10.42
2023-03-16T13:04:03.498Z,10.44
2023-03-16T13:07:03.071Z,10.19
2023-03-16T13:09:54.410Z,10.13
2023-03-16T13:12:41.603Z,9.99
2023-03-16T13:15:28.269Z,10.29
2023-03-16T13:18:33.822Z,10.21
2023-03-16T13:21:41.181Z,10.56
2023-03-16T13:24:35.443Z,10.49
2023-03-16T13:27:25.425Z,10.49
2023-03-16T13:30:32.302Z,10.53
2023-03-16T13:33:25.507Z,10.36
2023-03-16T13:36:12.947Z,10.20
2023-03-16T13:39:06.800Z,10.33
2023-03-16T13:42:10.662Z,10.29
2023-03-16T13:44:58.079Z,10.70
2023-03-16T13:47:45.208Z,10.73
2023-03-16T13:50:34.609Z,10.81
2023-03-16T13:53:28.439Z,10.68
2023-03-16T13:56:16.903Z,10.44
2023-03-16T13:59:04.532Z,10.14
2023-03-16T14:01:58.565Z,10.02
2023-03-16T14:04:43.838Z,9.96
2023-03-16T14:07:29.328Z,9.83
2023-03-16T14:10:20.382Z,9.79
2023-03-16T14:13:22.224Z,9.52
2023-03-16T14:16:12.524Z,9.45
2023-03-16T14:19:02.291Z,9.40
2023-03-16T14:21:47.443Z,9.30
2023-03-16T14:24:37.258Z,9.19
2023-03-16T14:27:41.670Z,9.22
2023-03-16T14:30:30.223Z,9.10
2023-03-16T14:33:28.704Z,9.08
2023-03-16T14:36:16.481Z,9.14
2023-03-16T14:39:14.205Z,9.07
2023-03-16T14:42:03.068Z,9.11
2023-03-16T14:44:49.968Z,9.08
2023-03-16T14:47:42.252Z,9.02
2023-03-16T14:50:27.944Z,9.03
2023-03-16T14:53:13.107Z,9.07
2023-03-16T14:55:59.318Z,9.01
2023-03-16T14:58:46.161Z,8.95
2023-03-16T15:01:31.340Z,8.89
2023-03-16T15:04:23.648Z,8.90
2023-03-16T15:07:29.455Z,8.76
2023-03-16T15:10:26.744Z,8.82
2023-03-16T15:13:35.230Z,8.66
2023-03-16T15:16:23.072Z,8.59
2023-03-16T15:19:09.125Z,8.57
2023-03-16T15:21:57.376Z,8.55
2023-03-16T15:24:43.928Z,8.53
2023-03-16T15:27:35.016Z,8.56
2023-03-16T15:30:26.313Z,8.46
2023-03-16T15:33:12.867Z,8.41
2023-03-16T15:35:59.997Z,8.39
2023-03-16T15:38:54.067Z,8.34
2023-03-16T15:41:47.589Z,8.38
2023-03-16T15:44:33.069Z,8.36
2023-03-16T15:47:19.430Z,8.30
2023-03-16T15:50:06.057Z,8.30
2023-03-16T15:52:59.468Z,8.25
2023-03-16T15:55:47.353Z,8.19
2023-03-16T15:58:34.860Z,8.19
2023-03-16T16:01:29.929Z,8.18
2023-03-16T16:04:19.445Z,8.11
2023-03-16T16:07:11.134Z,8.10
2023-03-16T16:09:56.489Z,8.08
2023-03-16T16:12:42.132Z,8.07
2023-03-16T16:15:35.981Z,8.08
2023-03-16T16:18:30.620Z,8.08
2023-03-16T16:21:23.225Z,8.05
2023-03-16T16:24:09.678Z,8.04
2023-03-16T16:26:56.087Z,8.01
2023-03-16T16:29:40.978Z,7.96
2023-03-16T16:32:26.512Z,7.93
2023-03-16T16:35:18.096Z,7.88
2023-03-16T16:38:04.670Z,7.86
2023-03-16T16:40:50.897Z,7.82
2023-03-16T16:43:42.424Z,7.83
2023-03-16T16:46:30.118Z,7.80
2023-03-16T16:49:26.989Z,7.78
2023-03-16T16:52:17.741Z,7.75
2023-03-16T16:55:03.154Z,7.66
2023-03-16T16:57:53.665Z,7.64
2023-03-16T17:00:39.767Z,7.60
2023-03-16T17:03:30.080Z,7.55
2023-03-16T17:06:17.653Z,7.50
2023-03-16T17:09:03.156Z,7.49
2023-03-16T17:11:50.344Z,7.45
2023-03-16T17:14:35.766Z,7.46
2023-03-16T17:17:21.422Z,7.42
2023-03-16T17:20:17.572Z,7.38
2023-03-16T17:23:19.451Z,7.38
2023-03-16T17:26:30.725Z,7.32
2023-03-16T17:29:22.916Z,7.27
2023-03-16T17:32:18.422Z,7.28
2023-03-16T17:35:13.030Z,7.26
2023-03-16T17:37:59.543Z,7.22
2023-03-16T17:40:45.328Z,7.20
2023-03-16T17:43:31.727Z,7.12
2023-03-16T17:46:24.262Z,7.14
2023-03-16T17:49:24.406Z,7.13
2023-03-16T17:52:18.628Z,7.08
2023-03-16T17:55:05.225Z,7.07
2023-03-16T17:57:56.688Z,7.06
2023-03-16T18:00:48.044Z,7.09
2023-03-16T18:03:33.229Z,7.00
2023-03-16T18:06:25.554Z,7.02
2023-03-16T18:09:11.163Z,6.96
2023-03-16T18:11:56.428Z,6.95
2023-03-16T18:14:44.265Z,6.94
2023-03-16T18:17:32.532Z,6.92
2023-03-16T18:20:27.747Z,6.88
2023-03-16T18:23:29.151Z,6.87
2023-03-16T18:26:16.786Z,6.82
2023-03-16T18:29:01.919Z,6.88
2023-03-16T18:31:47.867Z,6.82
2023-03-16T18:34:35.490Z,6.81
2023-03-16T18:37:23.438Z,6.79
2023-03-16T18:40:18.950Z,6.82
2023-03-16T18:43:08.538Z,6.77
2023-03-16T18:45:54.934Z,6.70
2023-03-16T18:48:48.853Z,6.70
2023-03-16T18:51:35.688Z,6.67
2023-03-16T18:54:32.144Z,6.70
2023-03-16T18:57:22.248Z,6.66
2023-03-16T19:00:08.109Z,6.58
2023-03-16T19:03:02.048Z,6.59
2023-03-16T19:05:47.309Z,6.53
2023-03-16T19:08:34.215Z,6.51
2023-03-16T19:11:19.852Z,6.51
2023-03-16T19:14:15.102Z,6.46
2023-03-16T19:17:05.316Z,6.49
2023-03-16T19:19:52.191Z,6.49
2023-03-16T19:22:40.497Z,6.46
2023-03-16T19:25:38.276Z,6.38
2023-03-16T19:28:40.560Z,6.38
2023-03-16T19:31:28.051Z,6.33
2023-03-16T19:34:18.456Z,6.32
2023-03-16T19:37:03.306Z,6.26
2023-03-16T19:39:48.576Z,6.26
2023-03-16T19:42:34.263Z,6.24
2023-03-16T19:45:29.240Z,6.16
2023-03-16T19:48:23.050Z,6.17
2023-03-16T19:51:35.738Z,6.13
2023-03-16T19:54:26.691Z,6.06
2023-03-16T19:57:17.177Z,6.13
2023-03-16T20:00:02.440Z,6.12
2023-03-16T20:02:48.383Z,6.03
2023-03-16T20:05:33.657Z,6.02
2023-03-16T20:08:28.466Z,5.98
2023-03-16T20:11:27.656Z,5.96
2023-03-16T20:14:23.679Z,5.94
2023-03-16T20:17:22.608Z,5.95
2023-03-16T20:20:18.349Z,5.91
2023-03-16T20:23:26.922Z,5.92
2023-03-16T20:26:22.894Z,5.91
2023-03-16T20:29:28.482Z,5.81
2023-03-16T20:32:22.954Z,5.77
2023-03-16T20:35:16.974Z,5.73
2023-03-16T20:38:01.897Z,5.80
2023-03-16T20:40:51.060Z,5.74
2023-03-16T20:43:36.183Z,5.74
2023-03-16T20:46:32.593Z,5.69
2023-03-16T20:49:29.147Z,5.75
2023-03-16T20:52:22.728Z,5.77
2023-03-16T20:55:12.904Z,5.71
2023-03-16T20:57:58.924Z,5.78
2023-03-16T21:00:45.563Z,5.74
2023-03-16T21:03:33.264Z,5.72
2023-03-16T21:06:24.343Z,5.69
2023-03-16T21:09:12.261Z,5.64
2023-03-16T21:11:57.384Z,5.63
2023-03-16T21:14:42.308Z,5.68
2023-03-16T21:17:34.412Z,5.62
2023-03-16T21:20:21.440Z,5.56
2023-03-16T21:23:13.731Z,5.55
2023-03-16T21:26:03.580Z,5.59
2023-03-16T21:29:01.350Z,5.59
2023-03-16T21:31:46.244Z,5.59
2023-03-16T21:34:36.150Z,5.60
2023-03-16T21:37:26.726Z,5.59
2023-03-16T21:40:20.794Z,5.61
2023-03-16T21:43:06.220Z,5.61
2023-03-16T21:45:52.353Z,5.60
2023-03-16T21:48:39.993Z,5.60
2023-03-16T21:51:30.107Z,5.57
2023-03-16T21:54:16.763Z,5.55
2023-03-16T21:57:02.726Z,5.58
2023-03-16T21:59:50.149Z,5.62
2023-03-16T22:02:36.912Z,5.57
2023-03-16T22:05:34.986Z,5.59
2023-03-16T22:08:30.541Z,5.60
2023-03-16T22:11:25.263Z,5.55
2023-03-16T22:14:11.780Z,5.56
2023-03-16T22:16:57.258Z,5.57
2023-03-16T22:19:42.358Z,5.60
2023-03-16T22:22:31.890Z,5.58
2023-03-16T22:25:21.856Z,5.57
2023-03-16T22:28:11.446Z,5.54
2023-03-16T22:30:58.167Z,5.51
2023-03-16T22:33:44.168Z,5.55
2023-03-16T22:36:32.766Z,5.53
2023-03-16T22:39:18.123Z,5.50
2023-03-16T22:42:22.233Z,5.44
2023-03-16T22:45:28.041Z,5.47
2023-03-16T22:48:22.332Z,5.42
2023-03-16T22:51:31.378Z,5.45
2023-03-16T22:54:21.175Z,5.44
2023-03-16T22:57:07.117Z,5.41
2023-03-16T22:59:52.631Z,5.45
2023-03-16T23:02:37.488Z,5.45
2023-03-16T23:05:25.576Z,5.36
2023-03-16T23:08:21.051Z,5.35
2023-03-16T23:11:13.584Z,5.38
2023-03-16T23:14:00.345Z,5.31
2023-03-16T23:16:47.150Z,5.29
2023-03-16T23:19:34.269Z,5.30
2023-03-16T23:22:19.079Z,5.26
2023-03-16T23:25:04.265Z,5.23
2023-03-16T23:27:51.405Z,5.23
2023-03-16T23:30:36.367Z,5.23
2023-03-16T23:33:22.032Z,5.18
2023-03-16T23:36:14.645Z,5.20
2023-03-16T23:39:00.591Z,5.22
2023-03-16T23:41:49.496Z,5.29
2023-03-16T23:44:34.552Z,5.21
2023-03-16T23:47:21.440Z,5.17
2023-03-16T23:50:07.944Z,5.23
2023-03-16T23:52:53.004Z,5.14
2023-03-16T23:55:38.291Z,5.09
2023-03-16T23:58:23.888Z,5.05
